Time;durP1;ratioP1;P1;durP2;ratioP2;P2;SDS_P1;SDS_P2;PMS_P1;PMS_P2;Temp;Humidity;BMP_temperature;BMP_pressure;BME280_temperature;BME280_humidity;BME280_pressure;Samples;Min_cycle;Max_cycle;Signal;HPM_P1;HPM_P2
2021/09/10 00:02:34;;;;;;;15.18;6.15;;;;;;;11.20;65.96;100164.74;2176360;80;21004;-76
2021/09/10 00:05:35;;;;;;;11.40;6.20;;;;;;;11.13;66.29;100166.94;2176199;80;21023;-77
2021/09/10 00:08:37;;;;;;;13.90;6.08;;;;;;;11.12;66.35;100171.90;2168526;80;21442;-76
2021/09/10 00:11:38;;;;;;;9.35;5.15;;;;;;;11.16;66.37;100167.92;2177568;80;20993;-75
2021/09/10 00:14:39;;;;;;;7.33;5.20;;;;;;;11.17;66.31;100162.42;2178072;80;21040;-75
2021/09/10 00:17:40;;;;;;;9.83;5.53;;;;;;;11.16;66.29;100163.44;2169981;80;20992;-78
2021/09/10 00:20:41;;;;;;;11.57;5.58;;;;;;;11.20;66.45;100162.59;2167428;80;21025;-77
2021/09/10 00:23:43;;;;;;;9.48;6.05;;;;;;;11.29;66.54;100162.06;2178237;80;21063;-78
2021/09/10 00:26:44;;;;;;;9.05;5.25;;;;;;;11.26;66.58;100163.23;2174957;80;20984;-75
2021/09/10 00:29:45;;;;;;;8.98;6.08;;;;;;;11.22;66.74;100164.08;2174912;80;20997;-76
2021/09/10 00:32:46;;;;;;;9.70;5.47;;;;;;;11.26;66.66;100163.73;2171863;80;21486;-78
2021/09/10 00:35:47;;;;;;;9.05;5.83;;;;;;;11.29;66.64;100163.39;2175424;80;21049;-76
2021/09/10 00:38:48;;;;;;;8.88;5.37;;;;;;;11.31;66.69;100166.72;2177691;80;21010;-76
2021/09/10 00:41:49;;;;;;;10.65;5.97;;;;;;;11.33;66.66;100163.41;2174122;80;21002;-78
2021/09/10 00:44:50;;;;;;;8.35;4.72;;;;;;;11.37;66.67;100170.02;2171823;80;21043;-78
2021/09/10 00:47:52;;;;;;;10.00;5.92;;;;;;;11.39;66.61;100165.38;2169376;80;20997;-79
2021/09/10 00:50:54;;;;;;;11.75;5.55;;;;;;;11.39;66.69;100162.71;2159559;80;21088;-77
2021/09/10 00:53:55;;;;;;;8.20;5.20;;;;;;;11.35;66.67;100165.40;2141863;80;21040;-74
2021/09/10 00:57:00;;;;;;;7.05;4.87;;;;;;;11.30;66.70;100171.72;2157762;80;20996;-78
2021/09/10 01:00:02;;;;;;;8.80;5.42;;;;;;;11.32;66.79;100167.03;2161731;80;21050;-76
2021/09/10 01:03:03;;;;;;;10.48;5.33;;;;;;;11.33;66.69;100168.20;2159864;80;21001;-78
2021/09/10 01:06:05;;;;;;;8.08;5.92;;;;;;;11.38;66.75;100166.38;2168662;80;20919;-77
2021/09/10 01:09:07;;;;;;;8.33;5.67;;;;;;;11.37;66.69;100161.54;2161954;80;21750;-79
2021/09/10 01:12:09;;;;;;;8.83;5.58;;;;;;;11.40;66.79;100164.36;2160435;80;21017;-77
2021/09/10 01:15:11;;;;;;;10.43;5.70;;;;;;;11.41;66.81;100164.70;2163379;80;20949;-76
2021/09/10 01:18:12;;;;;;;10.30;5.90;;;;;;;11.39;66.71;100172.84;2168166;80;20950;-76
2021/09/10 01:21:14;;;;;;;10.40;5.67;;;;;;;11.31;66.77;100172.86;2161987;80;21002;-77
2021/09/10 01:24:15;;;;;;;9.85;5.90;;;;;;;11.29;66.82;100170.89;2164856;80;21039;-76
2021/09/10 01:27:16;;;;;;;8.90;5.50;;;;;;;11.21;66.81;100176.22;2162578;80;20985;-75
2021/09/10 01:30:22;;;;;;;6.12;5.15;;;;;;;11.18;66.88;100170.74;2158468;80;21468;-76
2021/09/10 01:33:23;;;;;;;7.60;5.97;;;;;;;11.15;67.02;100175.07;2163511;80;21003;-76
2021/09/10 01:36:24;;;;;;;14.98;6.80;;;;;;;11.15;67.15;100172.41;2159792;80;20997;-77
2021/09/10 01:39:25;;;;;;;11.48;5.80;;;;;;;11.16;66.98;100173.23;2161448;80;20945;-76
2021/09/10 01:42:26;;;;;;;10.85;6.12;;;;;;;11.11;67.06;100171.08;2154869;80;21004;-76
2021/09/10 01:45:27;;;;;;;9.75;5.05;;;;;;;11.09;67.18;100170.41;2163382;80;20972;-75
2021/09/10 01:48:29;;;;;;;10.98;5.92;;;;;;;11.10;67.29;100166.77;2166305;80;21444;-76
2021/09/10 01:51:32;;;;;;;9.70;5.12;;;;;;;11.12;67.32;100166.11;2166844;80;21068;-77
2021/09/10 01:54:35;;;;;;;12.15;5.28;;;;;;;11.12;67.34;100170.09;2170978;80;20993;-76
2021/09/10 01:57:36;;;;;;;15.23;5.72;;;;;;;11.11;67.33;100165.77;2163942;80;21806;-76
2021/09/10 02:00:37;;;;;;;7.12;5.47;;;;;;;11.13;67.45;100166.94;2165669;80;21517;-78
2021/09/10 02:03:38;;;;;;;10.18;5.70;;;;;;;11.11;67.44;100164.44;2164641;80;21009;-76
2021/09/10 02:06:39;;;;;;;10.20;5.65;;;;;;;11.08;67.38;100167.44;2168229;80;20976;-79
2021/09/10 02:09:40;;;;;;;7.70;5.55;;;;;;;11.05;67.46;100165.63;2161865;80;20965;-75
2021/09/10 02:12:42;;;;;;;8.70;5.40;;;;;;;11.03;67.49;100164.45;2165685;80;21003;-76
2021/09/10 02:15:44;;;;;;;8.90;5.85;;;;;;;11.01;67.63;100163.81;2168943;80;21022;-78
2021/09/10 02:18:45;;;;;;;7.37;5.33;;;;;;;11.00;67.62;100167.44;2166234;80;20965;-76
2021/09/10 02:21:46;;;;;;;6.70;4.90;;;;;;;11.00;67.64;100167.44;2163598;80;21322;-79
2021/09/10 02:24:47;;;;;;;8.78;5.60;;;;;;;11.01;67.60;100166.47;2160821;80;21486;-77
2021/09/10 02:27:48;;;;;;;6.90;5.00;;;;;;;11.02;67.65;100169.44;2168533;80;21129;-76
2021/09/10 02:30:49;;;;;;;7.50;5.50;;;;;;;11.02;67.70;100166.78;2169120;80;21492;-76
2021/09/10 02:33:51;;;;;;;7.20;5.03;;;;;;;11.03;67.80;100164.95;2168963;80;21030;-77
2021/09/10 02:36:52;;;;;;;9.68;5.78;;;;;;;11.03;67.73;100161.80;2167657;80;21028;-76
2021/09/10 02:39:53;;;;;;;8.58;5.10;;;;;;;11.02;67.56;100158.00;2165034;80;21466;-78
2021/09/10 02:42:54;;;;;;;7.78;6.00;;;;;;;10.99;67.69;100156.00;2170630;80;20957;-78
2021/09/10 02:45:55;;;;;;;9.63;5.67;;;;;;;10.95;67.81;100160.48;2169252;80;21527;-76
2021/09/10 02:48:57;;;;;;;10.18;6.28;;;;;;;10.90;67.85;100156.20;2167945;80;21059;-77
2021/09/10 02:51:58;;;;;;;8.93;5.80;;;;;;;10.91;67.85;100163.15;2162028;80;21458;-78
2021/09/10 02:55:00;;;;;;;9.95;6.30;;;;;;;10.91;67.96;100156.52;2162016;80;21030;-79
2021/09/10 02:58:02;;;;;;;8.43;5.78;;;;;;;10.89;68.04;100160.65;2162659;80;21078;-75
2021/09/10 03:01:04;;;;;;;9.30;6.22;;;;;;;10.82;68.06;100160.18;2142857;80;20993;-77
2021/09/10 03:04:06;;;;;;;9.05;5.28;;;;;;;10.76;68.08;100160.35;2152881;80;21075;-76
2021/09/10 03:07:08;;;;;;;9.10;5.95;;;;;;;10.65;68.33;100162.02;2157379;80;20973;-76
2021/09/10 03:10:09;;;;;;;8.10;5.60;;;;;;;10.58;68.46;100164.48;2155186;80;21083;-80
2021/09/10 03:13:11;;;;;;;8.33;5.87;;;;;;;10.54;68.75;100161.84;2161592;80;20958;-78
2021/09/10 03:16:12;;;;;;;9.70;5.92;;;;;;;10.48;68.91;100166.48;2163635;80;21007;-76
2021/09/10 03:19:13;;;;;;;10.18;5.65;;;;;;;10.45;69.04;100160.19;2160079;80;21405;-77
2021/09/10 03:22:14;;;;;;;9.23;5.37;;;;;;;10.42;69.21;100161.34;2159694;80;21014;-77
2021/09/10 03:25:15;;;;;;;16.65;6.28;;;;;;;10.42;69.10;100165.31;2164460;80;21108;-74
2021/09/10 03:28:16;;;;;;;9.73;5.50;;;;;;;10.38;69.15;100164.47;2157942;80;22212;-76
2021/09/10 03:31:18;;;;;;;8.90;5.05;;;;;;;10.37;69.34;100160.17;2160583;80;20958;-75
2021/09/10 03:34:20;;;;;;;7.05;5.28;;;;;;;10.40;69.17;100154.03;2164658;80;21032;-77
2021/09/10 03:37:21;;;;;;;12.73;6.45;;;;;;;10.44;69.17;100157.17;2156428;80;21405;-78
2021/09/10 03:40:24;;;;;;;13.62;5.55;;;;;;;10.43;69.18;100152.87;2163130;80;21067;-78
2021/09/10 03:43:25;;;;;;;10.75;5.58;;;;;;;10.43;69.19;100150.23;2163596;80;21530;-77
2021/09/10 03:46:27;;;;;;;9.60;6.00;;;;;;;10.42;69.20;100151.23;2163475;80;20969;-76
2021/09/10 03:49:28;;;;;;;9.53;5.25;;;;;;;10.42;69.27;100144.60;2169920;80;21016;-77
2021/09/10 03:52:30;;;;;;;10.43;5.60;;;;;;;10.41;69.23;100143.74;2170924;80;20984;-75
2021/09/10 03:55:31;;;;;;;8.70;5.78;;;;;;;10.37;69.32;100149.56;2178796;80;20976;-79
2021/09/10 03:58:33;;;;;;;8.40;5.78;;;;;;;10.35;69.31;100146.23;2169659;80;20931;-77
2021/09/10 04:01:34;;;;;;;10.78;6.00;;;;;;;10.29;69.35;100147.72;2171787;80;21044;-75
2021/09/10 04:04:36;;;;;;;12.95;5.72;;;;;;;10.25;69.40;100145.05;2177123;80;21357;-77
2021/09/10 04:07:39;;;;;;;7.55;5.40;;;;;;;10.18;69.45;100146.18;2180364;80;21055;-76
2021/09/10 04:10:40;;;;;;;8.33;6.15;;;;;;;10.09;69.55;100153.80;2171782;80;21450;-78
2021/09/10 04:13:42;;;;;;;7.00;4.90;;;;;;;10.06;69.75;100152.30;2177253;80;21045;-79
2021/09/10 04:16:43;;;;;;;9.10;5.75;;;;;;;10.04;69.94;100152.13;2174852;80;21051;-76
2021/09/10 04:19:44;;;;;;;11.48;5.67;;;;;;;10.05;70.02;100148.47;2172599;80;21069;-77
2021/09/10 04:22:45;;;;;;;8.15;5.87;;;;;;;10.08;70.07;100151.64;2175676;80;21506;-79
2021/09/10 04:25:46;;;;;;;11.00;6.25;;;;;;;10.06;70.10;100148.32;2167569;80;21057;-79
2021/09/10 04:28:48;;;;;;;10.98;5.72;;;;;;;10.05;69.95;100155.95;2175153;80;20969;-79
2021/09/10 04:31:50;;;;;;;13.72;6.65;;;;;;;9.98;70.19;100156.25;2171102;80;21045;-80
2021/09/10 04:34:51;;;;;;;12.58;6.40;;;;;;;9.92;70.29;100156.91;2169502;80;21031;-78
2021/09/10 04:37:52;;;;;;;8.83;6.30;;;;;;;9.93;70.54;100163.03;2175449;80;21035;-77
2021/09/10 04:40:53;;;;;;;7.92;5.80;;;;;;;9.97;70.58;100153.28;2170179;80;21080;-79
2021/09/10 04:43:54;;;;;;;10.05;6.22;;;;;;;10.02;70.62;100162.05;2173580;80;20982;-78
2021/09/10 04:46:55;;;;;;;11.25;5.95;;;;;;;10.07;70.64;100163.72;2172700;80;21003;-77
2021/09/10 04:49:56;;;;;;;8.13;6.00;;;;;;;10.12;70.64;100158.77;2165921;80;21624;-78
2021/09/10 04:52:57;;;;;;;10.18;5.62;;;;;;;10.17;70.66;100161.77;2154016;80;21040;-78
2021/09/10 04:55:58;;;;;;;11.28;5.62;;;;;;;10.22;70.61;100160.79;2154957;81;20998;-75
2021/09/10 04:59:00;;;;;;;9.85;6.05;;;;;;;10.28;70.70;100162.81;2159365;81;20941;-75
2021/09/10 05:02:01;;;;;;;8.93;5.87;;;;;;;10.37;70.71;100162.83;2154091;80;20988;-77
2021/09/10 05:05:02;;;;;;;10.08;5.78;;;;;;;10.47;70.68;100162.16;2155690;80;21006;-78
2021/09/10 05:08:04;;;;;;;9.95;5.75;;;;;;;10.58;70.67;100165.80;2158519;81;20991;-78
2021/09/10 05:11:05;;;;;;;9.23;5.58;;;;;;;10.68;70.62;100165.66;2155142;80;21076;-78
2021/09/10 05:14:09;;;;;;;8.55;5.90;;;;;;;10.93;70.69;100163.31;2157468;80;21109;-77
2021/09/10 05:17:10;;;;;;;8.45;5.17;;;;;;;11.36;70.67;100167.86;2155422;81;21012;-77
2021/09/10 05:20:12;;;;;;;7.92;5.60;;;;;;;11.99;70.34;100163.97;2157218;80;21051;-79
2021/09/10 05:23:13;;;;;;;7.17;4.87;;;;;;;12.69;70.03;100166.48;2152565;81;21020;-77
2021/09/10 05:26:15;;;;;;;11.75;5.55;;;;;;;13.39;69.09;100165.84;2152254;81;21258;-78
2021/09/10 05:29:16;;;;;;;12.53;6.28;;;;;;;14.01;68.53;100167.23;2154011;81;21011;-83
2021/09/10 05:32:17;;;;;;;6.12;4.53;;;;;;;14.63;67.69;100165.33;2155585;81;21539;-83
2021/09/10 05:35:18;;;;;;;7.15;4.83;;;;;;;15.18;66.92;100166.39;2156220;80;21035;-83
2021/09/10 05:38:19;;;;;;;9.65;5.03;;;;;;;15.80;66.34;100174.05;2157132;81;21000;-81
2021/09/10 05:41:21;;;;;;;6.35;4.70;;;;;;;16.50;65.23;100171.13;2157814;81;21008;-83
2021/09/10 05:44:22;;;;;;;6.40;4.25;;;;;;;17.14;64.48;100177.25;2157305;80;21009;-83
2021/09/10 05:47:23;;;;;;;7.28;4.20;;;;;;;17.68;62.89;100175.27;2154860;81;21075;-83
2021/09/10 05:50:24;;;;;;;7.03;4.28;;;;;;;18.02;62.52;100173.30;2156157;81;21028;-80
2021/09/10 05:53:25;;;;;;;8.78;4.33;;;;;;;18.39;61.75;100178.38;2153040;81;20984;-81
2021/09/10 05:56:27;;;;;;;7.15;4.33;;;;;;;18.63;59.59;100174.06;2157152;81;21581;-82
2021/09/10 05:59:28;;;;;;;6.37;4.78;;;;;;;18.93;60.25;100178.84;2162163;81;21544;-81
2021/09/10 06:02:29;;;;;;;7.55;4.47;;;;;;;19.44;59.18;100180.41;2158431;80;21053;-84
2021/09/10 06:05:31;;;;;;;6.12;4.37;;;;;;;19.75;58.65;100180.81;2155399;81;21478;-80
2021/09/10 06:08:32;;;;;;;9.08;4.47;;;;;;;20.22;57.33;100178.88;2155958;80;21683;-80
2021/09/10 06:11:33;;;;;;;8.25;4.12;;;;;;;20.57;56.85;100179.81;2163636;80;20951;-79
2021/09/10 06:14:35;;;;;;;8.55;4.22;;;;;;;20.81;55.22;100179.88;2165254;81;21003;-80
2021/09/10 06:17:36;;;;;;;7.62;4.65;;;;;;;20.92;55.08;100173.68;2161302;81;21057;-82
2021/09/10 06:20:37;;;;;;;6.97;4.17;;;;;;;21.10;54.18;100177.31;2161775;81;20978;-78
2021/09/10 06:23:39;;;;;;;5.55;4.00;;;;;;;21.44;53.57;100176.49;2159385;81;20977;-76
2021/09/10 06:26:41;;;;;;;8.58;3.80;;;;;;;21.36;53.05;100178.17;2157183;81;21047;-77
2021/09/10 06:29:42;;;;;;;10.95;4.37;;;;;;;21.47;52.39;100181.41;2163627;80;21023;-77
2021/09/10 06:32:43;;;;;;;10.72;4.72;;;;;;;21.61;51.23;100178.47;2163714;81;21068;-76
2021/09/10 06:35:44;;;;;;;7.78;4.25;;;;;;;21.14;50.69;100175.24;2158219;81;21014;-78
2021/09/10 06:38:45;;;;;;;7.30;4.25;;;;;;;21.08;51.59;100183.47;2161114;80;21012;-79
2021/09/10 06:41:47;;;;;;;6.15;3.65;;;;;;;21.10;51.07;100180.83;2162930;80;21082;-76
2021/09/10 06:44:51;;;;;;;8.35;4.12;;;;;;;21.14;51.06;100181.17;2160224;80;21211;-76
2021/09/10 06:47:51;;;;;;;5.95;3.90;;;;;;;21.30;51.42;100180.47;2169544;81;20987;-79
2021/09/10 06:50:52;;;;;;;8.33;4.40;;;;;;;21.79;50.96;100185.58;2160645;80;21043;-78
2021/09/10 06:53:53;;;;;;;6.28;3.60;;;;;;;21.99;50.36;100185.16;2154980;80;21023;-77
2021/09/10 06:56:54;;;;;;;9.03;3.98;;;;;;;22.12;49.35;100187.59;2154853;80;20968;-79
2021/09/10 06:59:55;;;;;;;7.65;4.22;;;;;;;22.13;48.94;100191.92;2160303;80;21023;-76
2021/09/10 07:02:57;;;;;;;5.92;3.58;;;;;;;22.13;47.79;100188.71;2160457;80;21070;-77
2021/09/10 07:05:58;;;;;;;6.20;3.87;;;;;;;22.15;48.49;100187.92;2160158;80;21056;-78
2021/09/10 07:09:00;;;;;;;6.12;3.83;;;;;;;22.26;47.78;100193.02;2165149;80;20993;-77
2021/09/10 07:12:04;;;;;;;7.05;3.60;;;;;;;22.47;47.72;100198.28;2162161;80;21665;-79
2021/09/10 07:15:07;;;;;;;5.42;3.62;;;;;;;22.54;47.01;100194.06;2162875;80;20945;-78
2021/09/10 07:18:08;;;;;;;6.87;3.60;;;;;;;22.68;47.05;100194.58;2158568;80;20964;-76
2021/09/10 07:21:09;;;;;;;9.58;3.55;;;;;;;22.62;46.23;100195.02;2157089;80;21016;-79
2021/09/10 07:24:10;;;;;;;6.35;3.50;;;;;;;22.68;46.60;100198.09;2160293;80;21035;-77
2021/09/10 07:27:12;;;;;;;8.83;3.85;;;;;;;22.61;45.26;100192.04;2164484;80;21595;-79
2021/09/10 07:30:13;;;;;;;7.72;3.90;;;;;;;22.68;45.53;100194.58;2159915;80;21095;-78
2021/09/10 07:33:14;;;;;;;8.08;4.30;;;;;;;22.86;45.42;100196.20;2160128;80;20958;-75
2021/09/10 07:36:15;;;;;;;12.07;4.55;;;;;;;22.82;46.09;100191.83;2162513;80;21006;-75
2021/09/10 07:39:19;;;;;;;6.10;3.83;;;;;;;22.96;45.26;100193.17;2162947;80;21537;-75
2021/09/10 07:42:22;;;;;;;4.87;3.52;;;;;;;23.10;44.64;100186.08;2161734;80;21507;-79
2021/09/10 07:45:23;;;;;;;6.33;3.42;;;;;;;23.11;44.06;100187.16;2165320;80;21001;-75
2021/09/10 07:48:24;;;;;;;13.58;3.72;;;;;;;23.25;43.89;100192.52;2164738;80;21028;-77
2021/09/10 07:51:25;;;;;;;6.70;3.85;;;;;;;23.19;43.20;100194.87;2177584;80;21090;-76
2021/09/10 07:54:27;;;;;;;6.95;3.77;;;;;;;23.26;43.29;100196.06;2175619;80;20992;-78
2021/09/10 07:57:28;;;;;;;7.60;4.05;;;;;;;23.51;43.65;100199.67;2176665;80;21021;-76
2021/09/10 08:00:29;;;;;;;12.88;3.83;;;;;;;23.63;43.57;100203.07;2174065;80;21051;-76
2021/09/10 08:03:31;;;;;;;10.30;3.72;;;;;;;23.88;44.38;100197.73;2177126;80;21513;-76
2021/09/10 08:06:34;;;;;;;5.47;3.47;;;;;;;24.08;44.04;100206.09;2175331;80;20980;-76
2021/09/10 08:09:35;;;;;;;5.85;3.35;;;;;;;24.28;43.57;100201.97;2179016;80;21088;-77
2021/09/10 08:12:36;;;;;;;8.08;2.92;;;;;;;24.51;41.78;100199.50;2170810;80;20958;-76
2021/09/10 08:15:37;;;;;;;5.85;3.75;;;;;;;24.67;41.93;100197.22;2171559;80;21591;-76
2021/09/10 08:18:39;;;;;;;7.15;3.20;;;;;;;24.78;40.98;100190.80;2176201;80;21113;-76
2021/09/10 08:21:40;;;;;;;6.58;3.37;;;;;;;25.04;40.86;100197.78;2177489;80;21556;-74
2021/09/10 08:24:42;;;;;;;7.67;3.27;;;;;;;25.21;40.52;100193.03;2173433;80;20998;-76
2021/09/10 08:27:43;;;;;;;6.20;3.15;;;;;;;25.11;40.50;100198.35;2175887;80;21530;-76
2021/09/10 08:30:46;;;;;;;3.40;3.00;;;;;;;24.97;39.69;100193.09;2173950;80;21036;-78
2021/09/10 08:33:47;;;;;;;11.08;3.47;;;;;;;25.05;40.50;100189.36;2176651;80;21312;-79
2021/09/10 08:36:49;;;;;;;9.13;3.42;;;;;;;25.40;41.23;100189.90;2181304;80;21450;-80
2021/09/10 08:39:50;;;;;;;5.35;3.30;;;;;;;25.60;39.54;100187.28;2176395;80;21009;-78
2021/09/10 08:42:52;;;;;;;10.40;3.37;;;;;;;25.46;39.39;100185.58;2175588;80;21001;-77
2021/09/10 08:45:58;;;;;;;6.10;3.10;;;;;;;25.41;38.54;100186.91;2175771;80;21477;-78
2021/09/10 08:49:00;;;;;;;11.40;3.35;;;;;;;25.32;39.50;100185.77;2168824;80;21076;-76
2021/09/10 08:52:02;;;;;;;4.60;2.90;;;;;;;25.49;39.17;100187.77;2157725;80;21017;-75
2021/09/10 08:55:09;;;;;;;5.85;3.20;;;;;;;25.58;38.80;100179.92;2162833;80;21088;-75
2021/09/10 08:58:10;;;;;;;5.03;2.85;;;;;;;25.67;38.30;100182.41;2164383;80;20999;-76
2021/09/10 09:01:12;;;;;;;4.42;2.77;;;;;;;26.00;39.68;100186.37;2154390;80;20977;-77
2021/09/10 09:04:13;;;;;;;6.80;3.20;;;;;;;26.26;39.20;100190.78;2159022;80;21691;-75
2021/09/10 09:07:15;;;;;;;10.25;2.90;;;;;;;26.35;36.95;100194.59;2163435;80;21605;-78
2021/09/10 09:10:16;;;;;;;6.35;3.20;;;;;;;26.10;36.52;100193.18;2162101;80;21034;-75
2021/09/10 09:13:17;;;;;;;10.43;3.65;;;;;;;25.93;37.01;100199.68;2163451;80;20925;-74
2021/09/10 09:16:27;;;;;;;9.35;3.02;;;;;;;26.19;38.30;100205.19;2169833;80;21240;-76
2021/09/10 09:19:28;;;;;;;9.88;3.00;;;;;;;26.39;36.66;100197.06;2166398;80;21528;-76
2021/09/10 09:22:30;;;;;;;17.75;3.30;;;;;;;26.60;38.02;100191.12;2165344;80;21041;-78
2021/09/10 09:25:48;;;;;;;25.48;4.37;;;;;;;26.91;38.23;100193.84;2139570;80;21020;-78
2021/09/10 09:29:04;;;;;;;18.92;4.58;;;;;;;27.24;37.71;100191.11;2161753;80;21061;-80
2021/09/10 09:32:07;;;;;;;7.45;2.87;;;;;;;27.55;36.86;100195.67;2164229;80;21275;-78
2021/09/10 09:35:10;;;;;;;13.03;3.37;;;;;;;27.60;37.49;100193.74;2169632;80;21008;-77
2021/09/10 09:38:18;;;;;;;5.37;3.17;;;;;;;27.87;37.55;100192.56;2159405;80;21056;-77
2021/09/10 09:41:23;;;;;;;7.85;3.42;;;;;;;27.85;36.70;100187.95;2159343;80;21465;-78
2021/09/10 09:44:25;;;;;;;6.60;2.95;;;;;;;27.80;35.73;100184.70;2157100;80;21012;-79
2021/09/10 09:47:28;;;;;;;7.97;3.27;;;;;;;27.70;35.16;100188.23;2164688;80;20951;-75
2021/09/10 09:50:30;;;;;;;8.80;2.80;;;;;;;27.68;36.11;100180.09;2167346;80;21069;-76
2021/09/10 09:53:33;;;;;;;9.18;2.70;;;;;;;27.77;36.48;100178.97;2168959;80;20962;-77
2021/09/10 09:56:35;;;;;;;5.67;3.10;;;;;;;28.02;34.80;100180.23;2166261;80;20945;-78
2021/09/10 09:59:37;;;;;;;7.50;3.02;;;;;;;28.01;35.27;100186.77;2169745;80;20997;-74
2021/09/10 10:02:38;;;;;;;10.50;3.08;;;;;;;27.99;35.98;100182.16;2172491;80;21018;-75
2021/09/10 10:05:51;;;;;;;7.60;3.05;;;;;;;28.18;36.03;100181.48;2171553;80;21055;-79
2021/09/10 10:09:06;;;;;;;6.62;3.15;;;;;;;28.11;35.57;100179.09;2174912;80;21045;-77
2021/09/10 10:12:09;;;;;;;9.15;2.83;;;;;;;28.15;35.25;100182.87;2169827;80;21038;-81
2021/09/10 10:15:25;;;;;;;5.85;2.90;;;;;;;28.37;35.79;100178.36;2169660;80;21065;-78
2021/09/10 10:18:43;;;;;;;5.00;2.50;;;;;;;28.51;35.85;100175.84;2170984;80;20994;-79
2021/09/10 10:21:54;;;;;;;5.20;2.85;;;;;;;28.56;35.25;100176.62;2169995;80;21010;-80
2021/09/10 10:24:58;;;;;;;7.80;2.72;;;;;;;28.48;33.34;100171.77;2174048;80;20969;-78
2021/09/10 10:28:00;;;;;;;7.70;2.87;;;;;;;28.45;34.68;100176.43;2171449;80;21532;-79
2021/09/10 10:31:01;;;;;;;5.35;2.90;;;;;;;28.55;32.73;100177.73;2171770;80;21014;-77
2021/09/10 10:34:06;;;;;;;6.47;3.10;;;;;;;28.50;34.21;100173.67;2169982;80;21067;-78
2021/09/10 10:37:37;;;;;;;7.17;2.80;;;;;;;28.41;34.62;100175.87;2168929;80;21013;-80
2021/09/10 10:40:50;;;;;;;4.40;2.85;;;;;;;28.61;34.50;100168.95;2168921;80;21453;-76
2021/09/10 10:43:52;;;;;;;5.47;2.60;;;;;;;28.73;32.54;100168.57;2170309;80;21037;-76
2021/09/10 10:47:16;;;;;;;6.70;2.40;;;;;;;28.45;32.73;100171.53;2168644;80;21029;-75
2021/09/10 10:50:34;;;;;;;9.25;2.87;;;;;;;28.50;33.82;100165.48;2159756;80;21067;-76
2021/09/10 10:53:58;;;;;;;4.62;2.85;;;;;;;28.36;33.03;100165.28;2128848;82;21027;-76
2021/09/10 10:57:04;;;;;;;8.73;2.90;;;;;;;28.43;33.88;100166.34;2132027;82;21466;-77
2021/09/10 11:00:31;;;;;;;6.30;2.90;;;;;;;28.53;32.52;100162.73;2123067;82;20957;-78
2021/09/10 11:03:35;;;;;;;6.40;2.85;;;;;;;28.53;32.33;100166.27;2124280;82;21089;-77
2021/09/10 11:06:40;;;;;;;3.92;2.92;;;;;;;28.55;33.69;100164.08;2132525;82;21022;-76
2021/09/10 11:09:44;;;;;;;3.45;2.55;;;;;;;28.60;33.19;100158.55;2116283;82;21058;-77
2021/09/10 11:12:49;;;;;;;9.70;2.72;;;;;;;28.55;32.41;100155.89;2126840;82;21014;-75
2021/09/10 11:15:50;;;;;;;5.72;2.92;;;;;;;28.45;32.00;100161.42;2134052;82;20977;-77
2021/09/10 11:18:51;;;;;;;4.92;2.45;;;;;;;28.52;32.17;100159.20;2138513;82;21462;-76
2021/09/10 11:21:58;;;;;;;8.93;2.75;;;;;;;28.60;32.46;100161.28;2134659;82;21009;-78
2021/09/10 11:25:11;;;;;;;8.75;2.50;;;;;;;28.57;32.40;100149.58;2132333;82;21047;-77
2021/09/10 11:28:13;;;;;;;7.10;2.87;;;;;;;28.52;31.10;100160.56;2135551;82;21487;-75
2021/09/10 11:31:15;;;;;;;3.15;2.35;;;;;;;28.30;31.27;100156.06;2134535;82;21518;-76
2021/09/10 11:34:34;;;;;;;4.42;2.55;;;;;;;28.27;31.86;100158.80;2122651;82;21024;-77
2021/09/10 11:37:35;;;;;;;3.80;2.60;;;;;;;28.36;30.87;100157.64;2132560;82;20973;-78
2021/09/10 11:40:47;;;;;;;5.83;2.33;;;;;;;28.32;31.42;100160.11;2138185;82;20975;-76
2021/09/10 11:43:49;;;;;;;6.05;2.52;;;;;;;28.25;31.54;100157.45;2137030;82;20992;-77
2021/09/10 11:46:51;;;;;;;3.95;2.67;;;;;;;28.30;30.42;100155.50;2136464;82;21029;-76
2021/09/10 11:50:05;;;;;;;4.22;2.47;;;;;;;28.20;31.17;100158.29;2134410;82;21000;-77
2021/09/10 11:53:27;;;;;;;6.17;2.77;;;;;;;28.17;31.08;100156.13;2150475;82;21034;-78
2021/09/10 11:56:32;;;;;;;5.50;2.90;;;;;;;28.11;30.65;100152.63;2142558;82;21038;-77
2021/09/10 11:59:33;;;;;;;5.65;2.55;;;;;;;28.14;29.48;100143.88;2142549;82;21642;-77
2021/09/10 12:02:35;;;;;;;5.33;2.50;;;;;;;28.08;30.27;100142.28;2140839;82;21086;-76
2021/09/10 12:05:37;;;;;;;5.35;2.70;;;;;;;28.09;30.19;100147.98;2141347;82;21052;-75
2021/09/10 12:08:44;;;;;;;4.20;2.65;;;;;;;28.04;29.86;100138.47;2147383;82;21049;-78
2021/09/10 12:12:15;;;;;;;6.15;2.80;;;;;;;28.00;30.26;100137.98;2136905;82;21026;-75
2021/09/10 12:15:24;;;;;;;3.37;2.62;;;;;;;28.16;29.57;100135.42;2137052;82;21073;-76
2021/09/10 12:18:26;;;;;;;5.65;2.70;;;;;;;28.27;30.81;100125.23;2139053;82;21111;-77
2021/09/10 12:21:33;;;;;;;6.35;2.60;;;;;;;28.37;30.55;100121.06;2149363;82;21007;-78
2021/09/10 12:24:36;;;;;;;5.05;2.40;;;;;;;28.47;30.88;100129.22;2146621;82;21073;-77
2021/09/10 12:27:39;;;;;;;8.10;2.70;;;;;;;28.48;29.74;100123.20;2137788;82;21041;-78
2021/09/10 12:30:49;;;;;;;5.28;2.10;;;;;;;28.51;30.81;100123.44;2138666;82;21041;-78
2021/09/10 12:33:51;;;;;;;6.08;2.67;;;;;;;28.61;30.08;100119.82;2135732;82;21038;-76
2021/09/10 12:36:53;;;;;;;3.67;2.50;;;;;;;28.62;30.03;100115.17;2145183;82;21488;-77
2021/09/10 12:39:54;;;;;;;3.25;2.60;;;;;;;28.56;30.65;100115.20;2142414;82;21524;-78
2021/09/10 12:42:56;;;;;;;4.08;2.40;;;;;;;28.58;30.99;100116.30;2137189;82;21057;-76
2021/09/10 12:45:58;;;;;;;6.35;2.42;;;;;;;28.63;30.81;100111.33;2143333;82;21029;-77
2021/09/10 12:49:00;;;;;;;5.35;2.47;;;;;;;28.63;30.95;100112.14;2146916;82;21011;-76
2021/09/10 12:52:01;;;;;;;9.65;2.40;;;;;;;28.68;31.28;100112.65;2152485;81;21662;-77
2021/09/10 12:55:05;;;;;;;10.72;2.52;;;;;;;28.66;31.04;100109.39;2154139;81;21025;-76
2021/09/10 12:58:08;;;;;;;5.58;2.40;;;;;;;28.72;31.49;100104.98;2151926;81;20996;-77
2021/09/10 13:01:09;;;;;;;7.95;2.70;;;;;;;28.77;31.84;100098.63;2151881;81;21497;-77
2021/09/10 13:04:12;;;;;;;4.85;2.42;;;;;;;28.64;29.99;100095.23;2149712;81;21495;-79
2021/09/10 13:07:14;;;;;;;5.90;2.52;;;;;;;28.45;30.92;100101.39;2148802;81;21427;-78
2021/09/10 13:10:16;;;;;;;3.52;2.52;;;;;;;28.35;29.83;100101.43;2155117;81;20993;-77
2021/09/10 13:13:17;;;;;;;6.22;2.70;;;;;;;28.26;30.79;100094.97;2159012;81;21060;-78
2021/09/10 13:16:19;;;;;;;6.15;2.50;;;;;;;28.21;30.04;100097.17;2159238;81;21103;-75
2021/09/10 13:19:21;;;;;;;5.50;2.67;;;;;;;28.23;30.52;100100.99;2162156;81;21049;-75
2021/09/10 13:22:23;;;;;;;5.53;2.27;;;;;;;28.24;30.84;100099.88;2157648;81;21084;-78
2021/09/10 13:25:25;;;;;;;3.47;2.87;;;;;;;28.24;31.60;100095.79;2155268;81;21099;-75
2021/09/10 13:28:28;;;;;;;4.92;2.87;;;;;;;28.20;31.28;100098.84;2154324;81;21107;-76
2021/09/10 13:31:30;;;;;;;6.20;2.65;;;;;;;28.21;31.75;100097.73;2157932;81;21060;-76
2021/09/10 13:34:33;;;;;;;6.12;2.72;;;;;;;28.21;32.02;100096.36;2151347;81;21061;-76
2021/09/10 13:37:35;;;;;;;5.22;2.90;;;;;;;28.12;31.96;100090.70;2163194;81;21134;-77
2021/09/10 13:40:37;;;;;;;6.08;2.45;;;;;;;28.12;31.60;100087.98;2158821;81;21016;-79
2021/09/10 13:43:38;;;;;;;13.58;2.75;;;;;;;28.13;31.93;100083.61;2145524;81;21012;-76
2021/09/10 13:46:40;;;;;;;4.03;2.40;;;;;;;28.13;31.99;100086.34;2153289;81;21009;-77
2021/09/10 13:49:41;;;;;;;5.05;2.30;;;;;;;28.18;32.26;100084.66;2153927;81;21076;-78
2021/09/10 13:52:44;;;;;;;3.60;2.27;;;;;;;28.15;31.85;100077.86;2156453;80;21553;-77
2021/09/10 13:55:46;;;;;;;4.08;2.42;;;;;;;28.01;32.24;100079.60;2164210;80;21079;-79
2021/09/10 13:58:47;;;;;;;5.15;2.45;;;;;;;27.96;31.45;100077.74;2160643;80;21425;-75
2021/09/10 14:01:49;;;;;;;7.60;2.37;;;;;;;27.88;31.42;100079.16;2159802;80;21371;-77
2021/09/10 14:04:54;;;;;;;3.30;2.67;;;;;;;27.80;30.67;100080.30;2155149;80;21113;-78
2021/09/10 14:07:54;;;;;;;10.50;3.27;;;;;;;27.68;30.09;100078.70;2159941;80;21060;-76
2021/09/10 14:10:55;;;;;;;4.87;2.62;;;;;;;27.63;30.83;100075.99;2160385;80;21429;-77